Time;durP1;ratioP1;P1;durP2;ratioP2;P2;SDS_P1;SDS_P2;PMS_P1;PMS_P2;Temp;Humidity;BMP_temperature;BMP_pressure;BME280_temperature;BME280_humidity;BME280_pressure;Samples;Min_cycle;Max_cycle;Signal;HPM_P1;HPM_P2
2024/03/16 00:00:30;;;;;;;6.57;3.40;;;;;;;;;;5157544;27;20046;-50
2024/03/16 00:02:58;;;;;;;8.43;4.05;;;;;;;;;;5157989;27;20368;-53
2024/03/16 00:05:24;;;;;;;5.40;4.03;;;;;;;;;;5157389;27;20041;-52
2024/03/16 00:07:50;;;;;;;5.65;3.80;;;;;;;;;;5150940;27;20376;-54
2024/03/16 00:10:16;;;;;;;6.55;3.55;;;;;;;;;;5149446;27;20054;-52
2024/03/16 00:12:42;;;;;;;8.32;4.47;;;;;;;;;;5157152;27;20496;-51
2024/03/16 00:15:09;;;;;;;6.25;3.78;;;;;;;;;;5156291;27;20093;-61
2024/03/16 00:17:36;;;;;;;4.82;4.05;;;;;;;;;;5157217;27;20019;-55
2024/03/16 00:20:10;;;;;;;7.60;4.15;;;;;;;;;;5157331;27;20135;-51
2024/03/16 00:22:37;;;;;;;6.18;3.65;;;;;;;;;;5153096;27;20029;-52
2024/03/16 00:25:03;;;;;;;8.45;4.53;;;;;;;;;;5142634;27;20110;-54
2024/03/16 00:27:29;;;;;;;10.52;4.35;;;;;;;;;;5157526;27;20022;-52
2024/03/16 00:29:55;;;;;;;6.70;3.85;;;;;;;;;;5157028;27;20357;-52
2024/03/16 00:32:21;;;;;;;11.77;4.95;;;;;;;;;;5157357;27;20125;-52
2024/03/16 00:34:48;;;;;;;7.93;4.50;;;;;;;;;;5157380;27;20105;-53
2024/03/16 00:37:14;;;;;;;7.22;4.05;;;;;;;;;;5138115;27;20428;-52
2024/03/16 00:39:46;;;;;;;8.25;3.70;;;;;;;;;;5156598;27;20023;-50
2024/03/16 00:42:12;;;;;;;5.78;3.60;;;;;;;;;;5150908;27;20029;-51
2024/03/16 00:44:38;;;;;;;9.98;4.10;;;;;;;;;;5156176;27;20019;-52
2024/03/16 00:47:04;;;;;;;10.20;4.53;;;;;;;;;;5156343;27;20023;-50
2024/03/16 00:49:30;;;;;;;6.07;4.25;;;;;;;;;;5149361;27;20030;-52
2024/03/16 00:51:57;;;;;;;6.07;4.18;;;;;;;;;;5130895;27;20130;-54
2024/03/16 00:54:23;;;;;;;7.28;4.45;;;;;;;;;;5156702;27;20014;-56
2024/03/16 00:56:51;;;;;;;7.30;4.30;;;;;;;;;;5156565;27;20468;-51
2024/03/16 00:59:17;;;;;;;7.18;4.10;;;;;;;;;;5156536;27;20042;-51
2024/03/16 01:01:43;;;;;;;8.48;3.92;;;;;;;;;;5156637;27;20456;-51
2024/03/16 01:04:10;;;;;;;6.82;4.47;;;;;;;;;;5135704;27;20027;-54
2024/03/16 01:06:36;;;;;;;7.20;3.70;;;;;;;;;;5137826;27;20023;-51
2024/03/16 01:09:03;;;;;;;8.68;4.80;;;;;;;;;;5137242;27;20130;-51
2024/03/16 01:11:29;;;;;;;6.07;4.43;;;;;;;;;;5140623;27;20122;-51
2024/03/16 01:13:55;;;;;;;5.95;3.92;;;;;;;;;;5156267;27;20105;-53
2024/03/16 01:16:21;;;;;;;6.45;3.80;;;;;;;;;;5155886;27;20022;-51
2024/03/16 01:18:47;;;;;;;11.73;4.88;;;;;;;;;;5156011;27;20094;-51
2024/03/16 01:21:13;;;;;;;6.53;3.75;;;;;;;;;;5155830;27;20065;-52
2024/03/16 01:23:39;;;;;;;5.43;4.60;;;;;;;;;;5156000;27;20019;-52
2024/03/16 01:26:09;;;;;;;7.15;4.20;;;;;;;;;;5155950;27;20105;-52
2024/03/16 01:28:35;;;;;;;6.43;3.95;;;;;;;;;;5137329;27;20030;-50
2024/03/16 01:31:01;;;;;;;6.07;3.97;;;;;;;;;;5156084;27;20042;-53
2024/03/16 01:33:27;;;;;;;7.32;4.93;;;;;;;;;;5155815;27;20471;-51
2024/03/16 01:35:54;;;;;;;7.85;4.68;;;;;;;;;;5155724;27;20548;-54
2024/03/16 01:44:28;;;;;;;9.95;4.18;;;;;;;;;;5153139;27;20101;-53
2024/03/16 01:46:54;;;;;;;8.45;4.53;;;;;;;;;;5136978;27;20390;-52
2024/03/16 01:49:21;;;;;;;6.50;5.55;;;;;;;;;;5155415;27;20520;-53
2024/03/16 01:51:47;;;;;;;8.50;5.35;;;;;;;;;;5155405;27;20034;-54
2024/03/16 01:54:19;;;;;;;8.73;5.50;;;;;;;;;;5155737;27;20023;-53
2024/03/16 01:56:45;;;;;;;6.15;4.53;;;;;;;;;;5155493;27;20019;-52
2024/03/16 01:59:12;;;;;;;8.88;5.03;;;;;;;;;;5155549;27;20034;-52
2024/03/16 02:01:39;;;;;;;8.95;4.50;;;;;;;;;;5155413;27;20078;-52
2024/03/16 02:04:05;;;;;;;10.25;5.55;;;;;;;;;;5154550;27;20022;-52
2024/03/16 02:06:31;;;;;;;9.95;5.80;;;;;;;;;;5154422;27;20480;-54
2024/03/16 02:08:59;;;;;;;6.28;5.20;;;;;;;;;;5135853;27;20073;-51
2024/03/16 02:11:34;;;;;;;8.90;5.93;;;;;;;;;;5153969;27;20038;-53
2024/03/16 02:14:00;;;;;;;9.13;5.68;;;;;;;;;;5137567;27;20376;-53
2024/03/16 02:16:26;;;;;;;11.00;5.70;;;;;;;;;;5118717;27;20027;-53
2024/03/16 02:18:52;;;;;;;8.10;5.43;;;;;;;;;;5153265;27;20023;-50
2024/03/16 02:21:18;;;;;;;8.10;5.57;;;;;;;;;;5134595;27;20059;-53
2024/03/16 02:23:44;;;;;;;12.20;5.57;;;;;;;;;;5145544;27;20070;-51
2024/03/16 02:26:11;;;;;;;12.93;5.90;;;;;;;;;;5147652;27;20022;-52
2024/03/16 02:28:37;;;;;;;8.82;6.25;;;;;;;;;;5154476;27;20018;-51
2024/03/16 02:31:09;;;;;;;5.70;4.97;;;;;;;;;;5153997;27;20543;-52
2024/03/16 02:33:35;;;;;;;10.25;5.82;;;;;;;;;;5154173;27;20384;-51
2024/03/16 02:36:01;;;;;;;10.15;5.55;;;;;;;;;;5154157;27;20059;-51
2024/03/16 02:38:28;;;;;;;7.70;4.88;;;;;;;;;;5152921;27;20026;-56
2024/03/16 02:40:54;;;;;;;8.45;5.35;;;;;;;;;;5152364;27;20014;-53
2024/03/16 02:43:20;;;;;;;8.50;5.57;;;;;;;;;;5119618;27;20076;-54
2024/03/16 02:45:46;;;;;;;7.43;5.75;;;;;;;;;;5131603;27;20023;-53
2024/03/16 02:48:12;;;;;;;9.82;6.03;;;;;;;;;;5137425;27;20094;-52
2024/03/16 02:50:38;;;;;;;8.27;5.68;;;;;;;;;;5143526;27;20027;-53
2024/03/16 02:53:04;;;;;;;7.82;5.50;;;;;;;;;;5147593;27;20107;-56
2024/03/16 02:55:30;;;;;;;10.48;6.03;;;;;;;;;;5153387;27;20031;-56
2024/03/16 02:57:56;;;;;;;7.60;5.93;;;;;;;;;;5128704;27;20026;-52
2024/03/16 03:00:22;;;;;;;10.38;6.75;;;;;;;;;;5141728;27;20494;-52
2024/03/16 03:02:48;;;;;;;6.57;5.13;;;;;;;;;;5134911;27;20025;-52
2024/03/16 03:05:19;;;;;;;13.30;6.53;;;;;;;;;;5153412;27;20105;-50
2024/03/16 03:07:45;;;;;;;7.13;5.25;;;;;;;;;;5153568;27;20015;-52
2024/03/16 03:10:12;;;;;;;10.55;5.35;;;;;;;;;;5134543;27;20050;-52
2024/03/16 03:12:38;;;;;;;7.85;5.18;;;;;;;;;;5153214;27;20034;-55
2024/03/16 03:15:05;;;;;;;6.15;5.55;;;;;;;;;;5153298;27;20055;-51
2024/03/16 03:17:32;;;;;;;9.27;5.80;;;;;;;;;;5153394;27;20386;-53
2024/03/16 03:20:06;;;;;;;10.93;5.97;;;;;;;;;;5153138;27;20048;-52
2024/03/16 03:22:33;;;;;;;9.25;5.38;;;;;;;;;;5153119;27;20075;-52
2024/03/16 03:24:59;;;;;;;9.98;5.60;;;;;;;;;;5153418;27;20030;-50
2024/03/16 03:27:25;;;;;;;7.00;5.30;;;;;;;;;;5134563;27;20114;-51
2024/03/16 03:29:51;;;;;;;7.80;5.82;;;;;;;;;;5153368;27;20071;-50
2024/03/16 03:32:17;;;;;;;8.40;5.50;;;;;;;;;;5153016;27;20043;-56
2024/03/16 03:34:43;;;;;;;9.05;5.90;;;;;;;;;;5137617;27;20026;-56
2024/03/16 03:37:09;;;;;;;11.50;6.70;;;;;;;;;;5151704;27;20026;-53
2024/03/16 03:39:35;;;;;;;9.57;6.28;;;;;;;;;;5155843;27;20015;-51
2024/03/16 03:42:01;;;;;;;10.85;7.35;;;;;;;;;;5157199;27;20400;-57
2024/03/16 03:44:36;;;;;;;11.32;7.28;;;;;;;;;;5151379;27;20523;-56
2024/03/16 03:47:03;;;;;;;;;;;;;;;;;;5139741;27;20038;-51
2024/03/16 03:49:35;;;;;;;9.98;7.30;;;;;;;;;;5155781;27;20236;-51
2024/03/16 03:52:20;;;;;;;11.45;8.10;;;;;;;;;;5157232;27;20061;-55
2024/03/16 03:54:46;;;;;;;13.65;7.38;;;;;;;;;;5156954;27;20026;-54
2024/03/16 03:57:12;;;;;;;11.63;8.75;;;;;;;;;;5134998;27;20015;-50
2024/03/16 03:59:38;;;;;;;9.57;8.20;;;;;;;;;;5154565;27;20454;-51
2024/03/16 04:02:04;;;;;;;13.15;9.48;;;;;;;;;;5156947;27;20050;-51
2024/03/16 04:04:30;;;;;;;14.40;9.60;;;;;;;;;;5157004;27;20022;-56
2024/03/16 04:06:56;;;;;;;11.43;9.18;;;;;;;;;;5138171;27;20022;-52
2024/03/16 04:09:22;;;;;;;15.55;10.77;;;;;;;;;;5156623;27;20018;-51
2024/03/16 04:11:48;;;;;;;13.18;10.38;;;;;;;;;;5156678;27;20091;-56
2024/03/16 04:14:14;;;;;;;16.38;11.77;;;;;;;;;;5156690;27;20058;-53
2024/03/16 04:16:40;;;;;;;16.55;11.07;;;;;;;;;;5156617;27;20773;-55
2024/03/16 04:19:06;;;;;;;16.42;11.75;;;;;;;;;;5155138;27;20023;-54
2024/03/16 04:21:32;;;;;;;16.73;11.07;;;;;;;;;;5155899;27;20110;-50
2024/03/16 04:23:58;;;;;;;15.52;11.18;;;;;;;;;;5137899;27;20061;-51
2024/03/16 04:26:25;;;;;;;13.98;10.63;;;;;;;;;;5156436;27;20022;-53
2024/03/16 04:28:56;;;;;;;13.00;9.88;;;;;;;;;;5156414;27;20019;-51
2024/03/16 04:31:22;;;;;;;13.90;10.63;;;;;;;;;;5137709;27;20038;-50
2024/03/16 04:33:48;;;;;;;14.18;10.07;;;;;;;;;;5156244;27;20067;-52
2024/03/16 04:36:14;;;;;;;14.68;9.95;;;;;;;;;;5156659;27;20058;-50
2024/03/16 04:38:40;;;;;;;14.43;10.60;;;;;;;;;;5156317;27;20440;-52
2024/03/16 04:41:07;;;;;;;15.00;9.88;;;;;;;;;;5156211;27;20029;-51
2024/03/16 04:43:33;;;;;;;17.60;11.18;;;;;;;;;;5155788;27;20046;-50
2024/03/16 04:45:59;;;;;;;16.88;10.27;;;;;;;;;;5156048;27;20023;-51
2024/03/16 04:48:25;;;;;;;16.55;10.93;;;;;;;;;;5156049;27;20018;-51
2024/03/16 04:50:51;;;;;;;11.75;9.85;;;;;;;;;;5155980;27;20038;-51
2024/03/16 04:56:22;;;;;;;18.05;10.52;;;;;;;;;;5148353;27;20037;-53
2024/03/16 04:58:48;;;;;;;14.30;10.50;;;;;;;;;;5155737;27;20027;-53
2024/03/16 05:01:16;;;;;;;13.75;10.52;;;;;;;;;;5155550;27;20049;-49
2024/03/16 05:03:42;;;;;;;15.27;11.57;;;;;;;;;;5155927;27;20039;-50
2024/03/16 05:06:08;;;;;;;14.35;11.20;;;;;;;;;;5155512;27;20045;-49
2024/03/16 05:08:34;;;;;;;18.42;12.07;;;;;;;;;;5155746;27;20023;-50
2024/03/16 05:11:00;;;;;;;16.65;11.48;;;;;;;;;;5154806;27;20053;-50
2024/03/16 05:13:29;;;;;;;18.67;13.27;;;;;;;;;;5155821;27;20701;-54
2024/03/16 05:15:55;;;;;;;17.08;11.57;;;;;;;;;;5155287;27;20023;-50
2024/03/16 05:18:21;;;;;;;16.33;12.75;;;;;;;;;;5155260;27;20475;-54
2024/03/16 05:20:47;;;;;;;20.10;13.73;;;;;;;;;;5136749;27;20023;-54
2024/03/16 05:23:14;;;;;;;20.33;15.25;;;;;;;;;;5155533;27;20019;-54
2024/03/16 05:25:40;;;;;;;23.73;16.38;;;;;;;;;;5155241;27;20049;-55
2024/03/16 05:28:06;;;;;;;20.75;16.95;;;;;;;;;;5155281;27;20442;-53
2024/03/16 05:30:32;;;;;;;30.27;17.60;;;;;;;;;;5155748;27;20058;-54
2024/03/16 05:32:58;;;;;;;22.10;16.17;;;;;;;;;;5155806;27;20037;-48
2024/03/16 05:35:27;;;;;;;17.83;15.13;;;;;;;;;;5155674;27;20097;-49
2024/03/16 05:37:54;;;;;;;18.77;14.90;;;;;;;;;;5155596;27;20166;-48
2024/03/16 05:40:20;;;;;;;18.45;14.68;;;;;;;;;;5155714;27;20094;-49
2024/03/16 05:42:46;;;;;;;20.63;13.15;;;;;;;;;;5155470;27;20050;-51
2024/03/16 05:45:16;;;;;;;16.45;11.30;;;;;;;;;;5136772;27;20524;-51
2024/03/16 05:47:43;;;;;;;16.67;11.57;;;;;;;;;;5155156;27;20098;-51
2024/03/16 05:50:09;;;;;;;15.35;10.00;;;;;;;;;;5155451;27;20328;-50
2024/03/16 05:52:36;;;;;;;11.68;9.40;;;;;;;;;;5155256;27;20031;-49
2024/03/16 05:55:02;;;;;;;16.00;9.50;;;;;;;;;;5155106;27;20107;-50
2024/03/16 05:57:28;;;;;;;11.98;8.90;;;;;;;;;;5152620;27;20026;-51
2024/03/16 05:59:56;;;;;;;14.48;8.75;;;;;;;;;;5143193;27;20467;-50
2024/03/16 06:02:23;;;;;;;15.60;9.50;;;;;;;;;;5155360;27;20388;-48
2024/03/16 06:04:49;;;;;;;11.80;9.95;;;;;;;;;;5155000;27;20097;-48
2024/03/16 06:07:15;;;;;;;15.23;9.75;;;;;;;;;;5136215;27;20019;-53
2024/03/16 06:09:41;;;;;;;15.38;8.75;;;;;;;;;;5153395;27;20103;-50
2024/03/16 06:12:07;;;;;;;12.50;9.18;;;;;;;;;;5118991;27;20042;-49
2024/03/16 06:14:33;;;;;;;13.27;9.43;;;;;;;;;;5135986;27;20026;-49
2024/03/16 06:17:00;;;;;;;13.25;9.10;;;;;;;;;;5154403;27;20079;-52
2024/03/16 06:19:26;;;;;;;10.57;8.30;;;;;;;;;;5154363;27;20400;-53
2024/03/16 06:21:52;;;;;;;11.07;9.50;;;;;;;;;;5155082;27;20381;-51
2024/03/16 06:24:19;;;;;;;16.70;9.13;;;;;;;;;;5154765;27;20018;-54
2024/03/16 06:26:52;;;;;;;13.93;8.52;;;;;;;;;;5154914;27;20026;-52
2024/03/16 06:29:25;;;;;;;16.48;9.60;;;;;;;;;;5155112;27;20361;-50
2024/03/16 06:31:51;;;;;;;13.63;9.15;;;;;;;;;;5154546;27;20098;-51
2024/03/16 06:34:19;;;;;;;11.00;8.82;;;;;;;;;;5154729;27;20023;-50
2024/03/16 06:36:45;;;;;;;10.23;8.20;;;;;;;;;;5154757;27;20023;-49
2024/03/16 06:39:11;;;;;;;12.98;9.95;;;;;;;;;;5154491;27;20019;-51
2024/03/16 06:41:37;;;;;;;12.77;9.15;;;;;;;;;;5135597;27;20026;-50
2024/03/16 06:44:03;;;;;;;18.17;10.45;;;;;;;;;;5154195;27;20133;-53
2024/03/16 06:46:31;;;;;;;16.63;10.27;;;;;;;;;;5154593;27;20019;-50
2024/03/16 06:49:03;;;;;;;16.15;9.80;;;;;;;;;;5138771;27;20049;-51
2024/03/16 06:51:29;;;;;;;13.80;9.70;;;;;;;;;;5135691;27;20035;-54
2024/03/16 06:53:55;;;;;;;13.18;9.15;;;;;;;;;;5135522;27;20015;-55
2024/03/16 06:56:21;;;;;;;14.20;9.32;;;;;;;;;;5154579;27;20027;-53
2024/03/16 06:58:47;;;;;;;15.05;9.52;;;;;;;;;;5140623;27;20469;-54
2024/03/16 07:01:14;;;;;;;16.25;9.32;;;;;;;;;;5134636;27;20015;-54
2024/03/16 07:03:40;;;;;;;15.38;10.05;;;;;;;;;;5154101;27;20023;-52
2024/03/16 07:06:06;;;;;;;20.92;10.68;;;;;;;;;;5154200;27;20018;-53
2024/03/16 07:08:41;;;;;;;14.95;9.20;;;;;;;;;;5154181;27;20023;-53
2024/03/16 07:11:07;;;;;;;13.73;9.48;;;;;;;;;;5153650;27;20393;-53
2024/03/16 07:13:36;;;;;;;15.65;10.15;;;;;;;;;;5154046;27;20038;-50
2024/03/16 07:16:02;;;;;;;12.23;9.60;;;;;;;;;;5154110;27;20380;-51
2024/03/16 07:18:28;;;;;;;11.27;9.07;;;;;;;;;;5135125;27;20493;-55
2024/03/16 07:20:57;;;;;;;12.18;8.88;;;;;;;;;;5153748;27;20418;-54
2024/03/16 07:23:23;;;;;;;14.27;10.18;;;;;;;;;;5153763;27;20353;-51
2024/03/16 07:25:49;;;;;;;15.90;9.85;;;;;;;;;;5153684;27;20045;-53
2024/03/16 07:28:28;;;;;;;14.65;10.27;;;;;;;;;;5153640;27;20475;-50
2024/03/16 07:31:00;;;;;;;16.85;10.80;;;;;;;;;;5131070;28;20063;-49
2024/03/16 07:33:26;;;;;;;17.90;11.55;;;;;;;;;;5152190;27;20049;-52
2024/03/16 07:35:52;;;;;;;16.55;12.13;;;;;;;;;;5143190;27;20392;-51
2024/03/16 07:38:18;;;;;;;16.95;10.55;;;;;;;;;;5130997;27;20022;-52
2024/03/16 07:40:44;;;;;;;17.70;10.95;;;;;;;;;;5152891;27;20044;-52
2024/03/16 07:43:10;;;;;;;16.85;12.02;;;;;;;;;;5148129;27;20026;-53
2024/03/16 07:45:40;;;;;;;18.00;11.32;;;;;;;;;;5149651;27;20029;-54
2024/03/16 07:48:07;;;;;;;14.93;11.13;;;;;;;;;;5133720;27;20432;-55
2024/03/16 07:50:33;;;;;;;20.65;11.90;;;;;;;;;;5152345;27;20379;-56
2024/03/16 07:52:59;;;;;;;15.52;11.38;;;;;;;;;;5150872;27;20029;-54
2024/03/16 07:55:25;;;;;;;15.82;12.30;;;;;;;;;;5150955;27;20023;-52
2024/03/16 07:57:51;;;;;;;13.27;10.15;;;;;;;;;;5134818;27;20010;-51
2024/03/16 08:00:17;;;;;;;17.75;12.07;;;;;;;;;;5153394;27;20015;-51
2024/03/16 08:02:43;;;;;;;14.35;9.63;;;;;;;;;;5139053;27;20027;-51
2024/03/16 08:05:11;;;;;;;13.93;9.60;;;;;;;;;;5153788;27;20046;-50
2024/03/16 08:07:38;;;;;;;14.40;8.63;;;;;;;;;;5139562;27;20460;-52
2024/03/16 08:10:04;;;;;;;13.60;9.93;;;;;;;;;;5152454;27;20491;-53
2024/03/16 08:12:30;;;;;;;10.77;7.70;;;;;;;;;;5152853;27;20122;-49
2024/03/16 08:14:59;;;;;;;12.85;8.50;;;;;;;;;;5139542;27;20467;-49
2024/03/16 08:17:25;;;;;;;10.43;7.15;;;;;;;;;;5152764;27;20446;-49
2024/03/16 08:19:52;;;;;;;11.10;7.03;;;;;;;;;;5155113;27;20060;-49
2024/03/16 08:22:19;;;;;;;10.32;7.65;;;;;;;;;;5157523;27;20082;-49
2024/03/16 08:24:44;;;;;;;10.85;7.32;;;;;;;;;;5138616;27;20023;-49
2024/03/16 08:27:13;;;;;;;10.20;6.95;;;;;;;;;;5156940;27;20491;-51
2024/03/16 08:29:39;;;;;;;10.50;8.25;;;;;;;;;;5157225;27;20023;-54
2024/03/16 08:32:04;;;;;;;10.93;6.72;;;;;;;;;;5156836;27;20038;-54
2024/03/16 08:34:31;;;;;;;10.27;7.80;;;;;;;;;;5157169;27;20021;-54
2024/03/16 08:36:57;;;;;;;10.20;7.65;;;;;;;;;;5156897;27;20487;-55
2024/03/16 08:39:23;;;;;;;12.55;7.75;;;;;;;;;;5156685;27;20015;-51
2024/03/16 08:41:51;;;;;;;9.52;6.63;;;;;;;;;;5156793;27;20042;-53
2024/03/16 08:44:17;;;;;;;11.05;7.50;;;;;;;;;;5138072;27;20334;-57
2024/03/16 08:46:43;;;;;;;13.27;7.18;;;;;;;;;;5137802;27;20026;-51
2024/03/16 08:49:11;;;;;;;8.07;7.28;;;;;;;;;;5156303;27;20067;-53
2024/03/16 08:51:37;;;;;;;9.05;6.40;;;;;;;;;;5156560;27;20035;-51
2024/03/16 08:54:05;;;;;;;6.65;5.85;;;;;;;;;;5157014;27;20488;-53
2024/03/16 08:56:31;;;;;;;12.40;7.05;;;;;;;;;;5138057;27;20129;-51
2024/03/16 08:58:57;;;;;;;9.27;6.38;;;;;;;;;;5156568;27;20070;-53
2024/03/16 09:01:23;;;;;;;7.68;6.30;;;;;;;;;;5156315;27;20110;-57
2024/03/16 09:03:50;;;;;;;11.30;6.50;;;;;;;;;;5138117;27;20026;-51
2024/03/16 09:06:16;;;;;;;9.40;6.68;;;;;;;;;;5156882;27;20406;-50
2024/03/16 09:08:42;;;;;;;10.98;6.07;;;;;;;;;;5156237;27;20034;-50
2024/03/16 09:11:11;;;;;;;9.57;6.07;;;;;;;;;;5137465;27;20378;-51
2024/03/16 09:13:37;;;;;;;10.02;5.90;;;;;;;;;;5141953;27;20122;-50
2024/03/16 09:16:05;;;;;;;9.32;5.40;;;;;;;;;;5137626;27;20113;-52
2024/03/16 09:18:34;;;;;;;8.57;5.43;;;;;;;;;;5137396;27;20029;-50
2024/03/16 09:21:12;;;;;;;10.60;5.45;;;;;;;;;;5156316;27;20101;-49
2024/03/16 09:23:38;;;;;;;7.65;5.95;;;;;;;;;;5156407;27;20148;-51
2024/03/16 09:26:04;;;;;;;9.68;5.13;;;;;;;;;;5156114;27;20424;-52
2024/03/16 09:28:30;;;;;;;13.65;5.60;;;;;;;;;;5155991;27;20034;-52
2024/03/16 09:30:56;;;;;;;10.05;6.55;;;;;;;;;;5154612;27;20019;-52
2024/03/16 09:33:22;;;;;;;13.75;6.32;;;;;;;;;;5137552;27;20448;-53
2024/03/16 09:35:48;;;;;;;11.65;5.93;;;;;;;;;;5155882;27;20491;-52
2024/03/16 09:38:14;;;;;;;11.20;8.27;;;;;;;;;;5137289;27;20023;-50
2024/03/16 09:40:43;;;;;;;14.27;9.95;;;;;;;;;;5155625;27;20102;-51
2024/03/16 09:43:13;;;;;;;14.60;10.27;;;;;;;;;;5156236;27;20080;-51
2024/03/16 09:45:43;;;;;;;12.95;9.85;;;;;;;;;;5155570;27;20022;-52
2024/03/16 09:48:12;;;;;;;11.98;7.53;;;;;;;;;;5136964;27;20030;-53
2024/03/16 09:50:41;;;;;;;13.07;8.73;;;;;;;;;;5155555;27;20075;-51
2024/03/16 09:53:25;;;;;;;12.32;8.70;;;;;;;;;;5119963;27;20058;-51
2024/03/16 09:55:54;;;;;;;19.80;8.65;;;;;;;;;;5137100;27;20321;-50
2024/03/16 09:58:21;;;;;;;11.48;8.93;;;;;;;;;;5155644;27;20015;-52
2024/03/16 10:00:47;;;;;;;14.20;9.40;;;;;;;;;;5136806;27;20027;-52
2024/03/16 10:03:17;;;;;;;12.18;9.68;;;;;;;;;;5155406;27;20483;-51
2024/03/16 10:05:43;;;;;;;12.80;9.00;;;;;;;;;;5155516;27;20018;-54
2024/03/16 10:08:09;;;;;;;10.68;7.55;;;;;;;;;;5155124;27;20026;-56
2024/03/16 10:10:35;;;;;;;10.15;8.23;;;;;;;;;;5155145;27;20046;-55
2024/03/16 10:13:06;;;;;;;12.68;8.68;;;;;;;;;;5154912;27;20129;-52
2024/03/16 10:15:41;;;;;;;12.60;9.18;;;;;;;;;;5155333;27;20026;-52
2024/03/16 10:21:11;;;;;;;12.05;7.43;;;;;;;;;;5153891;27;20038;-55
2024/03/16 10:23:37;;;;;;;11.80;8.15;;;;;;;;;;5154996;27;20151;-53
2024/03/16 10:26:09;;;;;;;11.00;7.50;;;;;;;;;;5149885;27;20392;-50
2024/03/16 10:28:35;;;;;;;12.98;7.07;;;;;;;;;;5154857;27;20015;-54
2024/03/16 10:31:02;;;;;;;14.57;8.35;;;;;;;;;;5154926;27;20454;-49
2024/03/16 10:33:41;;;;;;;12.02;8.70;;;;;;;;;;5155351;27;20027;-47
2024/03/16 10:36:07;;;;;;;10.52;8.90;;;;;;;;;;5141295;27;20464;-48
2024/03/16 10:38:33;;;;;;;10.85;7.63;;;;;;;;;;5154621;27;20031;-48
2024/03/16 10:41:04;;;;;;;12.02;8.55;;;;;;;;;;5135850;27;20026;-48
2024/03/16 10:43:32;;;;;;;15.35;8.32;;;;;;;;;;5154555;27;20019;-47
2024/03/16 10:45:58;;;;;;;11.07;8.48;;;;;;;;;;5154144;27;20392;-48
2024/03/16 10:48:25;;;;;;;10.43;8.07;;;;;;;;;;5154644;27;20027;-51
2024/03/16 10:50:53;;;;;;;13.75;9.07;;;;;;;;;;5153794;27;20026;-51
2024/03/16 10:53:19;;;;;;;10.82;7.45;;;;;;;;;;5134939;27;20045;-51
2024/03/16 10:55:46;;;;;;;9.20;6.30;;;;;;;;;;5135827;27;20023;-53
2024/03/16 10:58:22;;;;;;;8.63;6.53;;;;;;;;;;5154518;27;20026;-48
2024/03/16 11:00:49;;;;;;;8.07;7.07;;;;;;;;;;5154259;27;20023;-48
2024/03/16 11:03:35;;;;;;;9.07;7.00;;;;;;;;;;5154337;27;20031;-48
2024/03/16 11:06:06;;;;;;;12.27;7.05;;;;;;;;;;5154191;27;20368;-48
2024/03/16 11:08:42;;;;;;;11.88;6.75;;;;;;;;;;5154064;27;20030;-50
2024/03/16 11:11:21;;;;;;;10.00;7.07;;;;;;;;;;5154273;27;20043;-49
2024/03/16 11:13:56;;;;;;;9.18;6.90;;;;;;;;;;5154229;27;20114;-49
2024/03/16 11:16:29;;;;;;;10.43;6.72;;;;;;;;;;5121440;27;20567;-48
2024/03/16 11:18:55;;;;;;;6.70;5.75;;;;;;;;;;5139899;27;20023;-51
2024/03/16 11:21:22;;;;;;;9.65;6.20;;;;;;;;;;5135548;27;20041;-50
2024/03/16 11:23:48;;;;;;;10.23;5.30;;;;;;;;;;5154043;27;20043;-46
2024/03/16 11:26:26;;;;;;;8.95;5.82;;;;;;;;;;5153997;27;20031;-49
2024/03/16 11:29:09;;;;;;;7.30;5.00;;;;;;;;;;5153482;27;20029;-49
2024/03/16 11:31:39;;;;;;;9.27;5.18;;;;;;;;;;5153924;27;20030;-47
2024/03/16 11:34:05;;;;;;;7.35;5.15;;;;;;;;;;5139253;27;20079;-51
2024/03/16 11:36:33;;;;;;;8.70;6.03;;;;;;;;;;5154220;27;20487;-48
2024/03/16 11:39:07;;;;;;;7.05;5.10;;;;;;;;;;5153848;27;20420;-54
2024/03/16 11:41:33;;;;;;;9.70;6.13;;;;;;;;;;5153820;27;20019;-50
2024/03/16 11:44:06;;;;;;;9.43;7.65;;;;;;;;;;5153521;27;20026;-48
2024/03/16 11:46:32;;;;;;;9.02;6.70;;;;;;;;;;5154028;27;20027;-49
2024/03/16 11:49:11;;;;;;;7.55;6.53;;;;;;;;;;5153626;27;20026;-49
2024/03/16 11:51:38;;;;;;;12.88;7.75;;;;;;;;;;5153757;27;20050;-48
2024/03/16 11:54:14;;;;;;;10.38;7.40;;;;;;;;;;5154720;27;20164;-47
2024/03/16 11:56:40;;;;;;;10.50;6.43;;;;;;;;;;5158152;27;20030;-47
2024/03/16 11:59:09;;;;;;;10.10;7.25;;;;;;;;;;5157616;27;20068;-47
2024/03/16 12:01:38;;;;;;;12.77;8.18;;;;;;;;;;5157963;27;20414;-47
2024/03/16 12:04:06;;;;;;;9.23;6.93;;;;;;;;;;5151912;27;20043;-50
2024/03/16 12:06:33;;;;;;;9.15;6.50;;;;;;;;;;5138387;27;20023;-51
2024/03/16 12:08:59;;;;;;;6.63;5.97;;;;;;;;;;5155348;27;20111;-54
2024/03/16 12:11:26;;;;;;;8.63;6.57;;;;;;;;;;5154774;27;20480;-50
2024/03/16 12:14:08;;;;;;;11.85;7.10;;;;;;;;;;5132745;27;20030;-54
2024/03/16 12:16:34;;;;;;;8.23;5.75;;;;;;;;;;5151636;27;20088;-50
2024/03/16 12:19:01;;;;;;;7.47;6.32;;;;;;;;;;5155899;27;20460;-51
2024/03/16 12:21:27;;;;;;;7.45;6.20;;;;;;;;;;5157332;27;20035;-53
2024/03/16 12:23:53;;;;;;;9.48;6.40;;;;;;;;;;5147243;27;20507;-49
2024/03/16 12:26:25;;;;;;;7.38;6.03;;;;;;;;;;5135075;27;20031;-50
2024/03/16 12:28:51;;;;;;;8.40;6.07;;;;;;;;;;5142972;27;20061;-50
2024/03/16 12:31:19;;;;;;;9.68;6.55;;;;;;;;;;5138720;27;20030;-49
2024/03/16 12:33:45;;;;;;;10.30;6.85;;;;;;;;;;5157293;27;20025;-50
2024/03/16 12:36:11;;;;;;;7.65;6.95;;;;;;;;;;5151351;27;20019;-49
2024/03/16 12:38:37;;;;;;;7.47;6.53;;;;;;;;;;5148946;27;20025;-52
2024/03/16 12:41:06;;;;;;;9.63;6.53;;;;;;;;;;5157047;27;20121;-49
2024/03/16 12:43:33;;;;;;;12.07;7.07;;;;;;;;;;5138559;27;20035;-49
2024/03/16 12:45:59;;;;;;;8.18;6.68;;;;;;;;;;5157199;27;20087;-49
2024/03/16 12:48:25;;;;;;;10.30;7.30;;;;;;;;;;5156797;27;20026;-49
2024/03/16 12:50:51;;;;;;;9.23;7.63;;;;;;;;;;5156957;27;20484;-51
2024/03/16 12:53:17;;;;;;;7.15;6.40;;;;;;;;;;5150537;27;20031;-50
2024/03/16 12:55:43;;;;;;;10.23;6.82;;;;;;;;;;5148530;27;20074;-51
2024/03/16 12:58:12;;;;;;;7.90;6.55;;;;;;;;;;5156707;27;20035;-50
2024/03/16 13:00:38;;;;;;;8.20;7.03;;;;;;;;;;5156802;27;20014;-49
2024/03/16 13:03:04;;;;;;;8.18;6.50;;;;;;;;;;5156761;27;20034;-52
2024/03/16 13:05:30;;;;;;;7.80;6.78;;;;;;;;;;5134424;27;20023;-51
2024/03/16 13:08:04;;;;;;;6.30;5.70;;;;;;;;;;5132428;27;20027;-50
2024/03/16 13:10:31;;;;;;;6.25;5.65;;;;;;;;;;5137913;27;20365;-48
2024/03/16 13:13:01;;;;;;;9.15;7.15;;;;;;;;;;5138215;27;20136;-49
2024/03/16 13:15:27;;;;;;;7.18;5.32;;;;;;;;;;5156765;27;20018;-51
2024/03/16 13:17:53;;;;;;;7.00;5.97;;;;;;;;;;5137811;27;20027;-54
2024/03/16 13:20:20;;;;;;;5.78;5.20;;;;;;;;;;5156529;27;20371;-53
2024/03/16 13:22:46;;;;;;;6.00;5.40;;;;;;;;;;5156450;27;20034;-52
2024/03/16 13:25:12;;;;;;;6.13;5.43;;;;;;;;;;5155513;27;20105;-52
2024/03/16 13:30:46;;;;;;;7.03;5.45;;;;;;;;;;5151230;27;20226;-51
2024/03/16 13:33:12;;;;;;;6.80;5.72;;;;;;;;;;5156097;27;20150;-54
2024/03/16 13:35:40;;;;;;;5.90;5.32;;;;;;;;;;5143988;27;20533;-54
2024/03/16 13:38:06;;;;;;;5.80;5.28;;;;;;;;;;5154027;27;20014;-52
2024/03/16 13:40:35;;;;;;;6.78;5.13;;;;;;;;;;5156328;27;20368;-55
2024/03/16 13:43:01;;;;;;;6.03;5.20;;;;;;;;;;5137206;27;20026;-51
2024/03/16 13:45:27;;;;;;;6.68;4.93;;;;;;;;;;5156004;27;20022;-51
2024/03/16 13:48:17;;;;;;;6.00;4.45;;;;;;;;;;5155530;27;20110;-50
2024/03/16 13:50:45;;;;;;;5.25;4.75;;;;;;;;;;5155643;27;20046;-52
2024/03/16 13:53:11;;;;;;;7.75;4.65;;;;;;;;;;5155580;27;20026;-53
2024/03/16 13:55:37;;;;;;;6.30;4.78;;;;;;;;;;5155754;27;20014;-50
2024/03/16 13:58:04;;;;;;;5.43;4.88;;;;;;;;;;5155879;27;20035;-50
2024/03/16 14:00:32;;;;;;;6.85;4.45;;;;;;;;;;5135394;27;20056;-50
2024/03/16 14:02:59;;;;;;;6.18;4.82;;;;;;;;;;5147192;27;20031;-49
2024/03/16 14:05:25;;;;;;;4.93;4.53;;;;;;;;;;5155378;27;20015;-49
2024/03/16 14:07:51;;;;;;;8.65;4.22;;;;;;;;;;5155377;27;20033;-48
2024/03/16 14:10:22;;;;;;;6.07;4.00;;;;;;;;;;5155234;27;20051;-48
2024/03/16 14:12:56;;;;;;;5.97;4.35;;;;;;;;;;5155473;27;20043;-49
2024/03/16 14:18:26;;;;;;;5.13;4.00;;;;;;;;;;5153988;27;20427;-53
2024/03/16 14:20:57;;;;;;;5.20;4.70;;;;;;;;;;5155292;27;20425;-51
2024/03/16 14:23:23;;;;;;;5.80;4.35;;;;;;;;;;5155051;27;20030;-50
2024/03/16 14:25:48;;;;;;;5.70;4.35;;;;;;;;;;5154999;27;20074;-49
2024/03/16 14:28:15;;;;;;;4.65;4.03;;;;;;;;;;5154925;27;20309;-48
2024/03/16 14:30:43;;;;;;;8.20;5.05;;;;;;;;;;5154925;27;20018;-50
2024/03/16 14:33:10;;;;;;;5.63;4.15;;;;;;;;;;5154876;27;20037;-53
2024/03/16 14:35:36;;;;;;;4.82;4.38;;;;;;;;;;5154812;27;20031;-50
2024/03/16 14:38:02;;;;;;;4.70;4.30;;;;;;;;;;5154705;27;20030;-49
2024/03/16 14:40:28;;;;;;;8.82;4.88;;;;;;;;;;5155076;27;20030;-49
2024/03/16 14:42:54;;;;;;;6.03;4.03;;;;;;;;;;5154625;27;20387;-48
2024/03/16 14:45:21;;;;;;;6.15;4.07;;;;;;;;;;5154460;27;20105;-50
2024/03/16 14:47:47;;;;;;;9.23;5.43;;;;;;;;;;5154261;27;20068;-50
2024/03/16 14:50:13;;;;;;;6.32;5.13;;;;;;;;;;5154503;27;20426;-53
2024/03/16 14:52:42;;;;;;;7.50;5.40;;;;;;;;;;5154778;27;20026;-53